Terminal Aerodrome Forecast
Issued by NWS

Home | Current Version | Previous Version | Text Only | Print | Product List | Glossary On
Versions: 1 2 3 4 5 6 7 8 9 10 11 12 13 14 15
000
FTUS43 KGRB 271139
TAFAUW
TAF
KAUW 271139Z 2712/2812 VRB03KT P6SM SCT050 SCT090
     FM271500 28007KT P6SM FEW100
     FM272000 25008G15KT P6SM SKC
     FM280000 22007KT P6SM SCT200
     FM280600 15007KT P6SM BKN150=

USA.gov is the U.S. government's official web portal to all federal, state and local government web resources and services.